createdAt,value
2017-10-20T00:01:20.031Z,85.70
2017-10-20T00:03:46.587Z,85.70
2017-10-20T00:06:13.152Z,86.60
2017-10-20T00:08:39.870Z,86.20
2017-10-20T00:11:06.439Z,85.50
2017-10-20T00:13:33.012Z,85.40
2017-10-20T00:15:59.632Z,85.10
2017-10-20T00:18:26.188Z,85.50
2017-10-20T00:20:53.115Z,87.80
2017-10-20T00:23:27.250Z,88.50
2017-10-20T00:25:53.811Z,88.50
2017-10-20T00:28:20.366Z,88.70
2017-10-20T00:30:46.976Z,88.90
2017-10-20T00:33:13.919Z,87.80
2017-10-20T00:35:40.484Z,87.80
2017-10-20T00:38:07.294Z,86.40
2017-10-20T00:40:33.970Z,85.10
2017-10-20T00:43:00.971Z,86.30
2017-10-20T00:45:27.694Z,86.30
2017-10-20T00:47:54.341Z,87.50
2017-10-20T00:50:21.855Z,86.80
2017-10-20T00:52:48.608Z,86.80
2017-10-20T00:55:15.739Z,87.90
2017-10-20T00:57:42.872Z,87.70
2017-10-20T01:00:09.596Z,87.70
2017-10-20T01:02:36.601Z,87.80
2017-10-20T01:05:03.351Z,87.80
2017-10-20T01:07:30.485Z,87.60
2017-10-20T01:09:57.407Z,87.70
2017-10-20T01:12:24.019Z,87.70
2017-10-20T01:14:50.859Z,87.40
2017-10-20T01:17:17.889Z,87.10
2017-10-20T01:19:45.021Z,87.20
2017-10-20T01:22:12.157Z,86.90
2017-10-20T01:24:39.178Z,86.50
2017-10-20T01:27:05.805Z,86.50
2017-10-20T01:29:32.915Z,87.10
2017-10-20T01:31:59.641Z,87.10
2017-10-20T01:34:26.389Z,86.50
2017-10-20T01:36:53.527Z,86.10
2017-10-20T01:39:20.527Z,85.90
2017-10-20T01:41:47.152Z,85.90
2017-10-20T01:44:13.896Z,86.10
2017-10-20T01:46:40.899Z,85.80
2017-10-20T01:49:07.543Z,85.90
2017-10-20T01:51:34.684Z,85.70
2017-10-20T01:54:01.699Z,86.10
2017-10-20T01:56:28.710Z,86.10
2017-10-20T01:58:55.451Z,86.10
2017-10-20T02:01:22.062Z,85.80
2017-10-20T02:03:48.700Z,85.50
2017-10-20T02:06:15.534Z,85.00
2017-10-20T02:08:42.488Z,84.10
2017-10-20T02:11:09.160Z,84.10
2017-10-20T02:13:35.883Z,84.10
2017-10-20T02:16:02.483Z,84.30
2017-10-20T02:18:29.041Z,84.40
2017-10-20T02:20:55.743Z,84.40
2017-10-20T02:23:22.326Z,83.90
2017-10-20T02:25:48.946Z,83.40
2017-10-20T02:28:15.739Z,83.70
2017-10-20T02:30:42.685Z,83.90
2017-10-20T02:33:09.279Z,83.90
2017-10-20T02:35:35.958Z,83.80
2017-10-20T02:38:02.720Z,83.30
2017-10-20T02:40:29.320Z,83.60
2017-10-20T02:42:55.980Z,84.00
2017-10-20T02:45:22.959Z,84.80
2017-10-20T02:47:49.629Z,84.80
2017-10-20T02:50:16.819Z,84.70
2017-10-20T02:52:43.460Z,84.70
2017-10-20T02:55:10.056Z,84.40
2017-10-20T02:57:36.802Z,83.80
2017-10-20T03:00:03.409Z,83.70
2017-10-20T03:02:29.974Z,83.40
2017-10-20T03:04:57.105Z,83.20
2017-10-20T03:07:24.135Z,83.10
2017-10-20T03:09:51.075Z,83.10
2017-10-20T03:12:18.059Z,83.00
2017-10-20T03:14:44.714Z,83.00
2017-10-20T03:17:11.723Z,83.20
2017-10-20T03:19:38.348Z,83.20
2017-10-20T03:22:04.969Z,83.00
2017-10-20T03:24:31.527Z,83.10
2017-10-20T03:26:58.131Z,82.90
2017-10-20T03:29:25.057Z,82.80
2017-10-20T03:31:51.987Z,82.90
2017-10-20T03:34:18.966Z,83.00
2017-10-20T03:36:45.635Z,83.00
2017-10-20T03:39:12.665Z,83.20
2017-10-20T03:41:39.666Z,82.80
2017-10-20T03:44:06.235Z,82.80
2017-10-20T03:46:32.836Z,83.40
2017-10-20T03:49:00.073Z,83.10
2017-10-20T03:51:27.103Z,83.30
2017-10-20T03:53:54.095Z,83.60
2017-10-20T03:56:20.761Z,83.60
2017-10-20T03:58:47.660Z,83.50
2017-10-20T04:01:14.263Z,83.60
2017-10-20T04:03:41.070Z,83.50
2017-10-20T04:06:07.635Z,83.70
2017-10-20T04:08:34.238Z,83.90
2017-10-20T04:11:00.919Z,83.90
2017-10-20T04:13:27.616Z,83.70
2017-10-20T04:15:54.236Z,83.60
2017-10-20T04:18:21.369Z,83.20
2017-10-20T04:20:48.295Z,83.00
2017-10-20T04:23:14.850Z,83.00
2017-10-20T04:25:41.641Z,83.10
2017-10-20T04:28:08.557Z,84.20
2017-10-20T04:30:35.114Z,84.20
2017-10-20T04:33:01.722Z,84.30
2017-10-20T04:35:28.286Z,83.50
2017-10-20T04:37:54.850Z,83.70
2017-10-20T04:40:21.955Z,84.70
2017-10-20T04:42:48.604Z,84.70
2017-10-20T04:45:15.607Z,84.90
2017-10-20T04:47:42.664Z,84.90
2017-10-20T04:50:09.285Z,85.20
2017-10-20T04:52:36.318Z,85.20
2017-10-20T04:55:03.243Z,85.20
2017-10-20T04:57:29.787Z,85.40
2017-10-20T04:59:56.662Z,85.40
2017-10-20T05:02:23.416Z,85.70
2017-10-20T05:04:50.370Z,85.20
2017-10-20T05:07:16.923Z,85.20
2017-10-20T05:09:43.535Z,84.60
2017-10-20T05:12:10.109Z,84.30
2017-10-20T05:14:37.039Z,84.30
2017-10-20T05:17:04.026Z,84.20
2017-10-20T05:19:30.685Z,84.20
2017-10-20T05:21:57.606Z,84.20
2017-10-20T05:24:24.235Z,84.20
2017-10-20T05:26:50.855Z,84.30
2017-10-20T05:29:17.862Z,84.70
2017-10-20T05:31:44.683Z,84.70
2017-10-20T05:34:11.536Z,84.80
2017-10-20T05:36:38.772Z,84.80
2017-10-20T05:39:05.905Z,84.40
2017-10-20T05:41:32.934Z,84.30
2017-10-20T05:43:59.490Z,84.20
2017-10-20T05:46:26.111Z,84.30
2017-10-20T05:48:52.663Z,83.50
2017-10-20T05:51:19.224Z,82.80
2017-10-20T05:53:46.258Z,82.60
2017-10-20T05:56:13.179Z,82.70
2017-10-20T05:58:40.103Z,82.90
2017-10-20T06:01:06.766Z,82.90
2017-10-20T06:03:33.350Z,82.80
2017-10-20T06:06:00.267Z,83.10
2017-10-20T06:08:26.879Z,83.10
2017-10-20T06:10:53.447Z,83.20
2017-10-20T06:13:20.011Z,83.20
2017-10-20T06:15:46.623Z,83.40
2017-10-20T06:18:13.195Z,83.20
2017-10-20T06:20:41.641Z,83.10
2017-10-20T06:23:08.643Z,82.40
2017-10-20T06:25:35.223Z,82.40
2017-10-20T06:28:01.847Z,82.40
2017-10-20T06:30:28.455Z,82.40
2017-10-20T06:32:55.012Z,82.40
2017-10-20T06:35:21.627Z,82.00
2017-10-20T06:37:48.259Z,81.70
2017-10-20T06:40:14.816Z,81.30
2017-10-20T06:42:48.414Z,80.90
2017-10-20T06:45:15.035Z,81.00
2017-10-20T06:47:41.979Z,81.00
2017-10-20T06:50:08.770Z,81.00
2017-10-20T06:52:35.799Z,81.00
2017-10-20T06:55:02.420Z,81.00
2017-10-20T06:57:29.149Z,80.50
2017-10-20T06:59:56.178Z,79.00
2017-10-20T07:02:22.875Z,79.10
2017-10-20T07:04:49.599Z,78.90
2017-10-20T07:07:16.349Z,78.20
2017-10-20T07:09:43.352Z,77.40
2017-10-20T07:12:10.079Z,77.40
2017-10-20T07:14:36.723Z,77.40
2017-10-20T07:17:03.711Z,75.90
2017-10-20T07:22:36.340Z,75.40
2017-10-20T07:25:03.023Z,75.20
2017-10-20T07:27:29.616Z,75.30
2017-10-20T07:29:56.288Z,75.70
2017-10-20T07:32:23.357Z,76.20
2017-10-20T07:34:49.953Z,76.20
2017-10-20T07:37:16.524Z,75.80
2017-10-20T07:39:43.171Z,75.00
2017-10-20T07:42:09.751Z,74.50
2017-10-20T07:44:36.330Z,74.00
2017-10-20T07:47:03.061Z,73.60
2017-10-20T07:49:29.638Z,73.50
2017-10-20T07:51:56.211Z,72.70
2017-10-20T07:54:22.983Z,70.80
2017-10-20T07:56:49.583Z,69.80
2017-10-20T07:59:16.151Z,68.90
2017-10-20T08:01:42.920Z,69.30
2017-10-20T08:04:09.503Z,69.30
2017-10-20T08:06:36.416Z,68.90
2017-10-20T08:09:03.187Z,68.90
2017-10-20T08:11:29.743Z,68.90
2017-10-20T08:13:56.299Z,68.40
2017-10-20T08:16:22.900Z,68.10
2017-10-20T08:18:49.850Z,66.10
2017-10-20T08:21:16.418Z,66.10
2017-10-20T08:23:43.024Z,64.80
2017-10-20T08:26:09.644Z,65.40
2017-10-20T08:28:36.204Z,64.50
2017-10-20T08:31:02.828Z,64.30
2017-10-20T08:33:29.371Z,63.60
2017-10-20T08:35:55.935Z,62.20
2017-10-20T08:38:22.551Z,62.50
2017-10-20T08:40:49.108Z,63.50
2017-10-20T08:43:16.099Z,61.40
2017-10-20T08:45:42.791Z,61.40
2017-10-20T08:48:09.455Z,61.60
2017-10-20T08:50:36.074Z,61.60
2017-10-20T08:53:02.735Z,61.70
2017-10-20T08:55:29.671Z,62.10
2017-10-20T08:57:56.639Z,61.90
2017-10-20T09:00:23.331Z,61.90
2017-10-20T09:02:49.931Z,62.30
2017-10-20T09:05:16.878Z,61.30
2017-10-20T09:07:43.674Z,61.30
2017-10-20T09:10:10.234Z,61.40
2017-10-20T09:12:36.792Z,61.50
2017-10-20T09:15:03.415Z,62.10
2017-10-20T09:17:30.043Z,61.70
2017-10-20T09:19:56.605Z,58.90
2017-10-20T09:22:23.223Z,60.70
2017-10-20T09:24:50.148Z,58.90
2017-10-20T09:27:17.075Z,59.60
2017-10-20T09:29:44.046Z,58.80
2017-10-20T09:32:10.673Z,58.80
2017-10-20T09:34:37.240Z,58.20
2017-10-20T09:37:04.411Z,56.30
2017-10-20T09:39:30.963Z,56.40
2017-10-20T09:41:57.515Z,57.00
2017-10-20T09:44:24.222Z,55.60
2017-10-20T09:46:50.811Z,54.90
2017-10-20T09:49:17.395Z,54.40
2017-10-20T09:51:44.079Z,55.60
2017-10-20T09:54:10.644Z,54.40
2017-10-20T09:56:37.202Z,54.60
2017-10-20T09:59:03.907Z,54.10
2017-10-20T10:01:30.609Z,54.60
2017-10-20T10:03:57.847Z,53.90
2017-10-20T10:06:24.535Z,54.00
2017-10-20T10:08:51.484Z,53.80
2017-10-20T10:11:18.455Z,54.20
2017-10-20T10:13:45.051Z,54.20
2017-10-20T10:16:11.660Z,53.70
2017-10-20T10:18:38.218Z,54.00
2017-10-20T10:21:05.971Z,54.30
2017-10-20T10:23:32.608Z,54.60
2017-10-20T10:25:59.257Z,54.20
2017-10-20T10:28:25.937Z,53.30
2017-10-20T10:30:52.559Z,52.50
2017-10-20T10:33:19.126Z,52.80
2017-10-20T10:35:45.747Z,53.30
2017-10-20T10:38:12.363Z,54.50
2017-10-20T10:40:39.291Z,50.50
2017-10-20T10:43:06.267Z,50.90
2017-10-20T10:45:33.027Z,51.00
2017-10-20T10:47:59.694Z,51.60
2017-10-20T10:50:26.311Z,49.80
2017-10-20T10:52:53.906Z,49.80
2017-10-20T10:55:20.870Z,50.30
2017-10-20T10:57:47.872Z,51.00
2017-10-20T11:00:14.890Z,50.40
2017-10-20T11:02:41.467Z,50.40
2017-10-20T11:05:08.184Z,50.30
2017-10-20T11:07:46.876Z,50.90
2017-10-20T11:10:25.575Z,49.80
2017-10-20T11:13:04.319Z,51.80
2017-10-20T11:15:31.011Z,51.80
2017-10-20T11:17:57.591Z,50.00
2017-10-20T11:20:24.155Z,49.00
2017-10-20T11:22:50.854Z,49.60
2017-10-20T11:25:17.467Z,49.70
2017-10-20T11:27:44.056Z,49.60
2017-10-20T11:30:10.715Z,49.80
2017-10-20T11:32:37.651Z,48.50
2017-10-20T11:35:04.606Z,49.60
2017-10-20T11:37:31.255Z,49.60
2017-10-20T11:39:57.827Z,48.60
2017-10-20T11:42:24.795Z,49.80
2017-10-20T11:44:51.440Z,49.80
2017-10-20T11:47:18.040Z,50.00
2017-10-20T11:49:44.608Z,50.00
2017-10-20T11:52:11.578Z,49.60
2017-10-20T11:54:38.167Z,49.60
2017-10-20T11:57:05.112Z,49.20
2017-10-20T11:59:31.859Z,49.20
2017-10-20T12:01:58.411Z,48.60
2017-10-20T12:04:25.010Z,48.60
2017-10-20T12:06:51.629Z,50.10
2017-10-20T12:09:18.218Z,49.80
2017-10-20T12:11:44.826Z,48.10
2017-10-20T12:14:11.440Z,48.60
2017-10-20T12:16:38.440Z,49.00
2017-10-20T12:19:05.019Z,49.00
2017-10-20T12:21:31.679Z,48.50
2017-10-20T12:23:58.226Z,49.80
2017-10-20T12:26:25.146Z,48.50
2017-10-20T12:28:51.755Z,48.50
2017-10-20T12:31:18.307Z,48.60
2017-10-20T12:33:45.236Z,47.10
2017-10-20T12:36:12.363Z,48.60
2017-10-20T12:38:39.300Z,47.30
2017-10-20T12:41:05.871Z,47.30
2017-10-20T12:43:32.494Z,48.30
2017-10-20T12:45:59.043Z,49.50
2017-10-20T12:48:25.983Z,48.60
2017-10-20T12:50:52.955Z,48.20
2017-10-20T12:53:19.508Z,48.20
2017-10-20T12:55:46.062Z,46.30
2017-10-20T12:58:12.687Z,48.50
2017-10-20T13:00:39.232Z,50.00
2017-10-20T13:03:06.159Z,48.40
2017-10-20T13:05:32.792Z,49.20
2017-10-20T13:07:59.395Z,48.30
2017-10-20T13:10:25.992Z,49.80
2017-10-20T13:12:52.624Z,47.90
2017-10-20T13:15:19.179Z,47.90
2017-10-20T13:17:45.740Z,47.90
2017-10-20T13:20:12.743Z,49.30
2017-10-20T13:22:39.292Z,49.30
2017-10-20T13:25:05.852Z,48.50
2017-10-20T13:27:32.674Z,48.40
2017-10-20T13:29:59.226Z,48.50
2017-10-20T13:32:25.771Z,48.30
2017-10-20T13:34:52.755Z,47.30
2017-10-20T13:37:19.313Z,47.30
2017-10-20T13:39:46.235Z,46.30
2017-10-20T13:42:12.832Z,46.30
2017-10-20T13:44:39.391Z,47.50
2017-10-20T13:47:06.320Z,47.40
2017-10-20T13:49:32.960Z,47.40
2017-10-20T13:51:59.512Z,46.90
2017-10-20T13:54:26.046Z,46.00
2017-10-20T13:56:52.776Z,47.80
2017-10-20T13:59:19.780Z,48.40
2017-10-20T14:01:46.356Z,48.50
2017-10-20T14:04:13.054Z,47.60
2017-10-20T14:06:39.643Z,46.50
2017-10-20T14:09:06.203Z,47.80
2017-10-20T14:11:32.927Z,48.90
2017-10-20T14:13:59.848Z,46.80
2017-10-20T14:16:26.400Z,46.80
2017-10-20T14:18:53.115Z,49.40
2017-10-20T14:21:19.723Z,50.40
2017-10-20T14:23:46.630Z,49.20
2017-10-20T14:26:13.439Z,49.20
2017-10-20T14:28:39.992Z,48.40
2017-10-20T14:31:06.555Z,48.80
2017-10-20T14:33:33.172Z,49.30
2017-10-20T14:35:59.723Z,48.60
2017-10-20T14:38:26.279Z,48.20
2017-10-20T14:40:53.447Z,50.90
2017-10-20T14:43:19.999Z,50.90
2017-10-20T14:45:46.540Z,51.10
2017-10-20T14:48:13.136Z,50.70
2017-10-20T14:50:39.692Z,50.40
2017-10-20T14:53:06.608Z,50.50
2017-10-20T14:55:33.223Z,50.50
2017-10-20T14:57:59.781Z,51.10
2017-10-20T15:00:26.332Z,51.80
2017-10-20T15:02:52.927Z,52.90
2017-10-20T15:05:19.746Z,52.30
2017-10-20T15:07:46.299Z,53.50
2017-10-20T15:10:12.900Z,53.20
2017-10-20T15:12:39.455Z,54.40
2017-10-20T15:15:06.019Z,55.20
2017-10-20T15:17:33.071Z,55.50
2017-10-20T15:19:59.644Z,55.50
2017-10-20T15:22:26.191Z,56.10
2017-10-20T15:24:52.824Z,56.60
2017-10-20T15:27:19.400Z,57.30
2017-10-20T15:29:45.951Z,58.10
2017-10-20T15:32:12.544Z,58.20
2017-10-20T15:34:39.095Z,58.90
2017-10-20T15:37:05.663Z,59.50
2017-10-20T15:39:32.359Z,60.60
2017-10-20T15:41:58.907Z,60.80
2017-10-20T15:44:25.463Z,60.70
2017-10-20T15:46:52.447Z,62.10
2017-10-20T15:49:19.011Z,62.10
2017-10-20T15:51:45.925Z,62.20
2017-10-20T15:54:12.523Z,62.20
2017-10-20T15:56:39.072Z,62.50
2017-10-20T15:59:05.995Z,63.50
2017-10-20T16:01:32.599Z,63.50
2017-10-20T16:03:59.166Z,63.90
2017-10-20T16:06:25.798Z,64.00
2017-10-20T16:08:52.404Z,65.10
2017-10-20T16:11:18.963Z,65.00
2017-10-20T16:13:45.512Z,65.30
2017-10-20T16:16:12.123Z,65.20
2017-10-20T16:18:38.687Z,66.00
2017-10-20T16:21:05.244Z,66.00
2017-10-20T16:23:31.856Z,66.70
2017-10-20T16:25:58.415Z,66.30
2017-10-20T16:28:24.970Z,66.90
2017-10-20T16:30:51.608Z,67.40
2017-10-20T16:33:18.174Z,67.50
2017-10-20T16:35:44.736Z,67.40
2017-10-20T16:38:11.468Z,67.30
2017-10-20T16:40:38.039Z,67.90
2017-10-20T16:43:04.595Z,68.00
2017-10-20T16:45:31.211Z,68.00
2017-10-20T16:47:57.763Z,68.50
2017-10-20T16:50:24.311Z,68.30
2017-10-20T16:52:50.928Z,68.50
2017-10-20T16:55:17.487Z,68.80
2017-10-20T16:57:44.048Z,68.70
2017-10-20T17:00:10.674Z,68.90
2017-10-20T17:02:37.228Z,69.00
2017-10-20T17:05:04.167Z,69.60
2017-10-20T17:07:31.183Z,69.80
2017-10-20T17:09:57.735Z,69.90
2017-10-20T17:12:24.286Z,69.80
2017-10-20T17:14:50.936Z,70.20
2017-10-20T17:17:17.491Z,69.90
2017-10-20T17:19:44.048Z,68.00
2017-10-20T17:22:10.675Z,67.30
2017-10-20T17:24:37.251Z,65.10
2017-10-20T17:27:03.929Z,64.70
2017-10-20T17:29:30.615Z,63.90
2017-10-20T17:31:57.204Z,62.10
2017-10-20T17:34:24.262Z,61.60
2017-10-20T17:36:50.894Z,61.60
2017-10-20T17:39:17.467Z,59.80
2017-10-20T17:41:44.391Z,59.10
2017-10-20T17:44:11.376Z,59.10
2017-10-20T17:46:37.927Z,59.10
2017-10-20T17:49:04.483Z,58.80
2017-10-20T17:51:31.107Z,58.90
2017-10-20T17:53:57.673Z,58.80
2017-10-20T17:56:24.223Z,58.80
2017-10-20T17:58:51.179Z,58.60
2017-10-20T18:01:17.822Z,58.60
2017-10-20T18:03:44.383Z,59.00
2017-10-20T18:06:10.979Z,58.90
2017-10-20T18:08:37.588Z,59.10
2017-10-20T18:11:04.169Z,59.10
2017-10-20T18:13:31.151Z,59.40
2017-10-20T18:15:57.765Z,59.40
2017-10-20T18:18:24.355Z,59.50
2017-10-20T18:20:50.984Z,59.50
2017-10-20T18:23:17.536Z,59.70
2017-10-20T18:25:45.052Z,60.10
2017-10-20T18:28:11.775Z,59.90
2017-10-20T18:30:39.380Z,60.00
2017-10-20T18:33:06.321Z,60.30
2017-10-20T18:35:32.945Z,60.30
2017-10-20T18:37:59.500Z,60.40
2017-10-20T18:40:26.056Z,60.70
2017-10-20T18:42:52.711Z,61.10
2017-10-20T18:45:19.273Z,61.60
2017-10-20T18:47:45.827Z,61.80
2017-10-20T18:50:13.823Z,62.20
2017-10-20T18:52:40.370Z,62.20
2017-10-20T18:55:06.940Z,62.30
2017-10-20T18:57:33.537Z,62.60
2017-10-20T19:00:00.566Z,62.60
2017-10-20T19:02:27.506Z,62.90
2017-10-20T19:04:54.492Z,62.50
2017-10-20T19:07:21.065Z,62.50
2017-10-20T19:09:47.649Z,62.50
2017-10-20T19:12:14.268Z,62.90
2017-10-20T19:14:40.831Z,63.20
2017-10-20T19:17:07.480Z,63.50
2017-10-20T19:19:34.438Z,63.60
2017-10-20T19:22:01.077Z,64.10
2017-10-20T19:24:28.020Z,64.30
2017-10-20T19:26:55.008Z,64.50
2017-10-20T19:29:22.385Z,64.50
2017-10-20T19:31:49.302Z,64.60
2017-10-20T19:34:16.307Z,64.60
2017-10-20T19:36:42.879Z,64.60
2017-10-20T19:39:09.600Z,64.90
2017-10-20T19:41:36.217Z,65.10
2017-10-20T19:44:02.783Z,65.40
2017-10-20T19:46:37.635Z,65.50
2017-10-20T19:49:04.619Z,66.30
2017-10-20T19:51:31.281Z,66.30
2017-10-20T19:53:58.272Z,66.70
2017-10-20T19:56:24.832Z,66.70
2017-10-20T19:58:52.037Z,67.20
2017-10-20T20:01:18.738Z,67.20
2017-10-20T20:03:45.298Z,67.10
2017-10-20T20:06:11.855Z,67.50
2017-10-20T20:08:39.747Z,68.10
2017-10-20T20:11:06.443Z,68.10
2017-10-20T20:13:33.426Z,68.50
2017-10-20T20:16:00.071Z,68.80
2017-10-20T20:18:26.628Z,69.00
2017-10-20T20:20:53.228Z,69.50
2017-10-20T20:23:19.851Z,69.20
2017-10-20T20:25:46.511Z,69.10
2017-10-20T20:28:13.071Z,69.20
2017-10-20T20:30:43.774Z,69.60
2017-10-20T20:33:10.801Z,69.70
2017-10-20T20:35:37.772Z,69.80
2017-10-20T20:38:04.439Z,69.80
2017-10-20T20:40:31.055Z,69.90
2017-10-20T20:42:57.681Z,70.60
2017-10-20T20:45:24.568Z,70.70
2017-10-20T20:47:51.135Z,70.70
2017-10-20T20:50:17.740Z,70.90
2017-10-20T20:52:44.383Z,71.10
2017-10-20T20:55:10.995Z,71.10
2017-10-20T20:57:37.617Z,71.60
2017-10-20T21:00:04.349Z,72.20
2017-10-20T21:02:31.036Z,72.30
2017-10-20T21:04:58.331Z,72.50
2017-10-20T21:07:24.959Z,72.40
2017-10-20T21:09:51.878Z,72.30
2017-10-20T21:12:18.623Z,72.60
2017-10-20T21:14:45.252Z,72.60
2017-10-20T21:17:12.011Z,72.50
2017-10-20T21:19:38.683Z,72.40
2017-10-20T21:22:05.455Z,72.60
2017-10-20T21:24:40.772Z,72.70
2017-10-20T21:27:07.379Z,72.90
2017-10-20T21:29:34.011Z,73.00
2017-10-20T21:32:00.568Z,72.80
2017-10-20T21:34:27.768Z,73.10
2017-10-20T21:36:54.332Z,73.10
2017-10-20T21:39:21.275Z,73.00
2017-10-20T21:41:47.884Z,73.00
2017-10-20T21:44:14.628Z,73.00
2017-10-20T21:46:41.205Z,73.00
2017-10-20T21:49:07.826Z,73.10
2017-10-20T21:51:35.051Z,73.10
2017-10-20T21:54:01.698Z,73.10
2017-10-20T21:56:28.359Z,73.30
2017-10-20T21:58:54.907Z,73.40
2017-10-20T22:01:21.467Z,73.60
2017-10-20T22:03:48.104Z,73.50
2017-10-20T22:06:14.692Z,73.60
2017-10-20T22:08:41.275Z,73.90
2017-10-20T22:11:08.034Z,73.80
2017-10-20T22:13:34.978Z,74.00
2017-10-20T22:16:01.551Z,74.00
2017-10-20T22:18:28.188Z,74.00
2017-10-20T22:20:54.739Z,73.90
2017-10-20T22:23:21.662Z,74.00
2017-10-20T22:25:48.647Z,74.00
2017-10-20T22:28:15.203Z,74.00
2017-10-20T22:30:42.143Z,74.30
2017-10-20T22:33:09.659Z,74.30
2017-10-20T22:35:36.263Z,74.30
2017-10-20T22:38:02.847Z,74.30
2017-10-20T22:40:29.475Z,74.00
2017-10-20T22:42:56.044Z,74.00
2017-10-20T22:45:22.616Z,74.00
2017-10-20T22:47:49.245Z,74.30
2017-10-20T22:50:15.821Z,74.50
2017-10-20T22:52:42.744Z,74.50
2017-10-20T22:55:09.512Z,74.50
2017-10-20T22:57:36.087Z,74.80
2017-10-20T23:00:03.020Z,74.80
2017-10-20T23:02:30.007Z,75.20
2017-10-20T23:04:56.564Z,75.20
2017-10-20T23:07:23.118Z,75.20
2017-10-20T23:09:49.740Z,75.30
2017-10-20T23:12:16.323Z,75.30
2017-10-20T23:14:42.890Z,75.40
2017-10-20T23:17:09.607Z,75.40
2017-10-20T23:19:36.160Z,75.30
2017-10-20T23:22:02.736Z,75.50
2017-10-20T23:24:29.358Z,75.70
2017-10-20T23:26:55.912Z,75.60
2017-10-20T23:29:22.484Z,76.10
2017-10-20T23:31:49.495Z,76.30
2017-10-20T23:34:16.053Z,76.20
2017-10-20T23:36:42.922Z,76.10
2017-10-20T23:39:09.939Z,76.30
2017-10-20T23:41:36.512Z,76.30
2017-10-20T23:44:03.448Z,76.60
2017-10-20T23:46:30.059Z,76.60
2017-10-20T23:48:57.000Z,76.60
2017-10-20T23:51:23.612Z,76.60
2017-10-20T23:53:50.595Z,76.90
2017-10-20T23:56:17.135Z,76.90
2017-10-20T23:58:43.690Z,77.00
